Ruma, Illinois
Current Conditions -  °F | °C
As of 10:35 PM on Friday 19 Dec 2014 (Local Time) from KSAR Reporting Station
Overcast Overcast  
Wind Chill: 34°   Ceiling: 3000
Heat Index: 34°   Visibility: 10mi
Dew Point: 29°   Wind: 0mph
Humidity: 83%   Direction: NA
Pressure: 30.28"   Gusts: NA
Location:  38.1575°N, 89.9813°W
Report Text: KSAR 200435Z AUTO 00000KT 10SM OVC030 01/M02 A3028 RMK AO2 T00091017
Loading
Personal Weather Stations






























Interactive Weather Map New forecast layout! Learn more

10-Day Weather Forecast

Advertisements
Track Severe Weather on mobile